Tnt — WDA8395 — position and weather

sailwx.info

Track history (hours):
 
Tides and Currents Weather Stations Pressure Air Temp Water Temp Dewpoint Dewpoint Depression Visibility Wind Speed Wind Dir Waves Ship Positions

Tnt

Owner: BRINDLEY, JAMES A, BARNEGAT LIGHT, NJ. More information available from US FCC via Universal Licensing System and Coast Guard Vessel Documentation Center.

Last reported at 2018-May-17 20:11 UTC. Time now 2018-May-20 13:19 UTC.
Position N 39°46' W 074°07'.

Length 17 m.

Type: Fishing. MMSI: 366853880.

Date/timePositionNaut miles runAvg speedWind from/ knotsBaromVisibWave heightAir tempDewpointWater temp
2018-May-17 20:11N 39°46' W 074°07'1 2.3
2018-May-17 19:49N 39°46' W 074°06'3 8.5
2018-May-17 19:26N 39°43' W 074°03'6 0.6
2018-May-17 08:17N 39°40' W 073°55'3 8.6
2018-May-17 07:56N 39°42' W 073°58'4 9.1
2018-May-17 07:28N 39°44' W 074°03'  
2018-May-14 21:34N 39°46' W 074°07'0 0.0
2018-May-14 21:05N 39°46' W 074°07'0 0.0
2018-May-14 20:53N 39°46' W 074°07'0 0.0
2018-May-14 20:23N 39°46' W 074°07'0 0.0
2018-May-14 19:59N 39°46' W 074°07'2 2.9
2018-May-14 19:25N 39°45' W 074°05'5 9.7
2018-May-14 18:53N 39°42' W 073°59'4 0.3
2018-May-14 08:16N 39°40' W 073°56'2 9.3
2018-May-14 08:00N 39°41' W 073°58'5 9.2
2018-May-14 07:30N 39°44' W 074°03'2 0.1
2018-May-13 15:11N 39°46' W 074°05'1 6.0
2018-May-13 14:58N 39°44' W 074°05'1 3.1
2018-May-13 14:30N 39°44' W 074°06'0 0.8
2018-May-13 14:00N 39°44' W 074°07'2 1.7
2018-May-13 12:48N 39°46' W 074°07'0 0.0
2018-May-13 12:19N 39°46' W 074°07'2 4.4
2018-May-13 11:58N 39°45' W 074°05'1 1.5
2018-May-13 11:24N 39°44' W 074°06'2 0.1
2018-May-12 20:04N 39°46' W 074°07'10 0.3
2018-May-11 08:13N 39°40' W 073°57'3 9.5
2018-May-11 07:55N 39°42' W 073°59'4 9.6
2018-May-11 07:29N 39°44' W 074°03'  
2018-May-08 22:51N 39°46' W 074°07'0 0.0
2018-May-08 22:27N 39°46' W 074°07'1 0.9
2018-May-08 21:47N 39°46' W 074°06'3 8.9
2018-May-08 21:26N 39°44' W 074°03'4 0.3
2018-May-08 08:00N 39°41' W 073°59'5 9.5
2018-May-08 07:28N 39°45' W 074°03'  
Track history (hours):
 
Tides and Currents Weather Stations Pressure Air Temp Water Temp Dewpoint Dewpoint Depression Visibility Wind Speed Wind Dir Waves Ship Positions

Tnt

Owner: BRINDLEY, JAMES A, BARNEGAT LIGHT, NJ. More information available from US FCC via Universal Licensing System and Coast Guard Vessel Documentation Center.

Last reported at 2018-May-17 20:11 UTC. Time now 2018-May-20 13:19 UTC.
Position N 39°46' W 074°07'.

Length 17 m.

Type: Fishing. MMSI: 366853880.

Date/timePositionNaut miles runAvg speedWind from/ knotsBaromVisibWave heightAir tempDewpointWater temp
2018-May-17 20:11N 39°46' W 074°07'1 2.3
2018-May-17 19:49N 39°46' W 074°06'3 8.5
2018-May-17 19:26N 39°43' W 074°03'6 0.6
2018-May-17 08:17N 39°40' W 073°55'3 8.6
2018-May-17 07:56N 39°42' W 073°58'4 9.1
2018-May-17 07:28N 39°44' W 074°03'  
2018-May-14 21:34N 39°46' W 074°07'0 0.0
2018-May-14 21:05N 39°46' W 074°07'0 0.0
2018-May-14 20:53N 39°46' W 074°07'0 0.0
2018-May-14 20:23N 39°46' W 074°07'0 0.0
2018-May-14 19:59N 39°46' W 074°07'2 2.9
2018-May-14 19:25N 39°45' W 074°05'5 9.7
2018-May-14 18:53N 39°42' W 073°59'4 0.3
2018-May-14 08:16N 39°40' W 073°56'2 9.3
2018-May-14 08:00N 39°41' W 073°58'5 9.2
2018-May-14 07:30N 39°44' W 074°03'2 0.1
2018-May-13 15:11N 39°46' W 074°05'1 6.0
2018-May-13 14:58N 39°44' W 074°05'1 3.1
2018-May-13 14:30N 39°44' W 074°06'0 0.8
2018-May-13 14:00N 39°44' W 074°07'2 1.7
2018-May-13 12:48N 39°46' W 074°07'0 0.0
2018-May-13 12:19N 39°46' W 074°07'2 4.4
2018-May-13 11:58N 39°45' W 074°05'1 1.5
2018-May-13 11:24N 39°44' W 074°06'2 0.1
2018-May-12 20:04N 39°46' W 074°07'10 0.3
2018-May-11 08:13N 39°40' W 073°57'3 9.5
2018-May-11 07:55N 39°42' W 073°59'4 9.6
2018-May-11 07:29N 39°44' W 074°03'  
2018-May-08 22:51N 39°46' W 074°07'0 0.0
2018-May-08 22:27N 39°46' W 074°07'1 0.9
2018-May-08 21:47N 39°46' W 074°06'3 8.9
2018-May-08 21:26N 39°44' W 074°03'4 0.3
2018-May-08 08:00N 39°41' W 073°59'5 9.5
2018-May-08 07:28N 39°45' W 074°03'  

Dump ship's entire track history